createdAt,value
2019-05-20T00:07:06.123Z,11.88
2019-05-20T00:17:06.067Z,11.91
2019-05-20T00:27:06.022Z,12.05
2019-05-20T00:37:06.127Z,12.14
2019-05-20T00:47:06.093Z,12.24
2019-05-20T00:57:06.094Z,12.32
2019-05-20T01:07:06.106Z,12.31
2019-05-20T01:17:09.544Z,12.34
2019-05-20T01:27:06.092Z,12.38
2019-05-20T01:37:06.093Z,12.43
2019-05-20T01:47:06.054Z,12.47
2019-05-20T01:57:06.118Z,12.50
2019-05-20T02:07:06.204Z,12.52
2019-05-20T02:17:06.039Z,12.52
2019-05-20T02:27:06.103Z,12.51
2019-05-20T02:37:06.104Z,12.49
2019-05-20T02:47:06.068Z,12.47
2019-05-20T02:57:06.114Z,12.44
2019-05-20T03:07:06.188Z,12.44
2019-05-20T03:17:06.057Z,12.43
2019-05-20T03:27:06.109Z,12.44
2019-05-20T03:37:06.083Z,12.43
2019-05-20T03:47:06.080Z,12.43
2019-05-20T03:57:06.123Z,12.42
2019-05-20T04:07:06.090Z,12.46
2019-05-20T04:17:06.053Z,12.45
2019-05-20T04:27:06.124Z,12.47
2019-05-20T04:37:07.011Z,12.48
2019-05-20T04:47:06.117Z,12.49
2019-05-20T04:57:06.059Z,12.54
2019-05-20T05:07:06.159Z,12.48
2019-05-20T05:17:07.010Z,12.51
2019-05-20T05:27:06.052Z,12.54
2019-05-20T05:47:13.466Z,12.71
2019-05-20T05:57:13.430Z,12.79
2019-05-20T06:07:13.438Z,12.76
2019-05-20T06:31:55.874Z,12.77
2019-05-20T06:41:56.064Z,12.85
2019-05-20T06:51:56.011Z,12.98
2019-05-20T07:01:56.108Z,13.12
2019-05-20T07:11:57.706Z,13.11
2019-05-20T07:21:56.036Z,13.32
2019-05-20T07:31:56.123Z,13.29
2019-05-20T07:41:56.079Z,13.12
2019-05-20T07:51:56.054Z,13.33
2019-05-20T08:01:57.038Z,13.27
2019-05-20T08:11:56.115Z,13.53
2019-05-20T08:21:56.046Z,13.64
2019-05-20T16:48:25.801Z,13.68
2019-05-20T16:58:25.915Z,13.52
2019-05-20T17:08:25.864Z,13.39
2019-05-20T17:18:25.843Z,13.41
2019-05-20T17:28:25.803Z,13.42
2019-05-20T17:38:25.898Z,13.46
2019-05-20T17:48:25.829Z,13.30
2019-05-20T17:58:26.754Z,13.23
2019-05-20T18:08:25.871Z,13.20
2019-05-20T18:18:25.889Z,13.12
2019-05-20T18:28:25.831Z,13.07
2019-05-20T18:38:25.995Z,13.04
2019-05-20T18:48:25.857Z,12.95
2019-05-20T18:58:25.994Z,12.89
2019-05-20T19:08:25.898Z,12.85
2019-05-20T19:18:27.795Z,12.83
2019-05-20T19:28:27.890Z,12.66
2019-05-20T19:38:25.885Z,12.60
2019-05-20T19:48:25.877Z,12.54
2019-05-20T19:58:25.832Z,12.52
2019-05-20T20:08:25.917Z,12.47
2019-05-20T20:18:25.879Z,12.40
2019-05-20T20:28:25.942Z,12.31
2019-05-20T20:38:25.893Z,12.26
2019-05-20T20:48:25.926Z,12.19
2019-05-20T20:58:25.937Z,12.15
2019-05-20T21:08:26.518Z,12.08
